Time;durP1;ratioP1;P1;durP2;ratioP2;P2;SDS_P1;SDS_P2;PMS_P1;PMS_P2;Temp;Humidity;BMP_temperature;BMP_pressure;BME280_temperature;BME280_humidity;BME280_pressure;Samples;Min_cycle;Max_cycle;Signal;HPM_P1;HPM_P2
2023/12/10 00:01:35;;;;;;;;;;;;;;;;;;5113513;28;20329;-51
2023/12/10 00:04:02;;;;;;;;;;;;;;;;;;5113535;28;20023;-51
2023/12/10 00:06:28;;;;;;;;;;;;;;;;;;5113609;28;19923;-51
2023/12/10 00:08:54;;;;;;;;;;;;;;;;;;5113304;28;19923;-51
2023/12/10 00:11:20;;;;;;;;;;;;;;;;;;5113286;28;19973;-51
2023/12/10 00:13:47;;;;;;;;;;;;;;;;;;5113280;28;19992;-51
2023/12/10 00:16:13;;;;;;;;;;;;;;;;;;5112991;28;19963;-51
2023/12/10 00:18:39;;;;;;;;;;;;;;;;;;5113028;28;20079;-51
2023/12/10 00:21:05;;;;;;;;;;;;;;;;;;5113310;28;19928;-51
2023/12/10 00:23:31;;;;;;;;;;;;;;;;;;5113402;28;19924;-50
2023/12/10 00:25:58;;;;;;;;;;;;;;;;;;5113317;28;19924;-51
2023/12/10 00:28:24;;;;;;;;;;;;;;;;;;5112952;28;20324;-51
2023/12/10 00:30:50;;;;;;;;;;;;;;;;;;5112994;28;19924;-52
2023/12/10 00:33:16;;;;;;;;;;;;;;;;;;5113283;28;20105;-51
2023/12/10 00:35:42;;;;;;;;;;;;;;;;;;5113166;28;20010;-49
2023/12/10 00:38:09;;;;;;;;;;;;;;;;;;5112868;28;19931;-51
2023/12/10 00:40:35;;;;;;;;;;;;;;;;;;5112741;28;19972;-51
2023/12/10 00:43:01;;;;;;;;;;;;;;;;;;5112743;28;19948;-51
2023/12/10 00:45:27;;;;;;;;;;;;;;;;;;5112776;28;19927;-51
2023/12/10 00:47:53;;;;;;;;;;;;;;;;;;5112520;28;19927;-51
2023/12/10 00:50:20;;;;;;;;;;;;;;;;;;5112823;28;19924;-52
2023/12/10 00:52:46;;;;;;;;;;;;;;;;;;5112887;28;19931;-51
2023/12/10 00:55:13;;;;;;;;;;;;;;;;;;5105857;28;20356;-50
2023/12/10 00:57:39;;;;;;;;;;;;;;;;;;5112646;28;20405;-48
2023/12/10 01:00:06;;;;;;;;;;;;;;;;;;5113051;28;19923;-52
2023/12/10 01:02:32;;;;;;;;;;;;;;;;;;5113028;28;19967;-51
2023/12/10 01:04:58;;;;;;;;;;;;;;;;;;5112948;28;19924;-51
2023/12/10 01:07:25;;;;;;;;;;;;;;;;;;5112858;28;19930;-51
2023/12/10 01:09:51;;;;;;;;;;;;;;;;;;5112713;28;19959;-49
2023/12/10 01:12:17;;;;;;;;;;;;;;;;;;5112374;28;19934;-51
2023/12/10 01:14:44;;;;;;;;;;;;;;;;;;5112555;28;20006;-52
2023/12/10 01:17:12;;;;;;;;;;;;;;;;;;5111958;28;20009;-50
2023/12/10 01:19:38;;;;;;;;;;;;;;;;;;5112315;28;20457;-52
2023/12/10 01:22:05;;;;;;;;;;;;;;;;;;5112705;28;19924;-52
2023/12/10 01:24:31;;;;;;;;;;;;;;;;;;5113983;28;19924;-50
2023/12/10 01:26:57;;;;;;;;;;;;;;;;;;5116257;28;19924;-50
2023/12/10 01:29:25;;;;;;;;;;;;;;;;;;5116359;27;20409;-52
2023/12/10 01:31:51;;;;;;;;;;;;;;;;;;5116073;28;20359;-51
2023/12/10 01:34:17;;;;;;;;;;;;;;;;;;5116373;28;19992;-51
2023/12/10 01:36:44;;;;;;;;;;;;;;;;;;5115491;28;19973;-52
2023/12/10 01:39:10;;;;;;;;;;;;;;;;;;5115889;28;19928;-51
2023/12/10 01:41:36;;;;;;;;;;;;;;;;;;5115991;28;19934;-49
2023/12/10 01:44:03;;;;;;;;;;;;;;;;;;5113352;28;19973;-51
2023/12/10 01:46:29;;;;;;;;;;;;;;;;;;5115911;27;20428;-52
2023/12/10 01:48:56;;;;;;;;;;;;;;;;;;5115318;27;19992;-52
2023/12/10 01:51:22;;;;;;;;;;;;;;;;;;5115421;28;19955;-50
2023/12/10 01:53:48;;;;;;;;;;;;;;;;;;5116078;28;20001;-51
2023/12/10 01:56:14;;;;;;;;;;;;;;;;;;5115664;28;19971;-52
2023/12/10 01:58:40;;;;;;;;;;;;;;;;;;5115731;28;20005;-50
2023/12/10 02:01:07;;;;;;;;;;;;;;;;;;5115941;27;20391;-50
2023/12/10 02:03:33;;;;;;;;;;;;;;;;;;5115673;28;19930;-52
2023/12/10 02:05:59;;;;;;;;;;;;;;;;;;5115682;28;19923;-52
2023/12/10 02:08:26;;;;;;;;;;;;;;;;;;5115270;28;20006;-51
2023/12/10 02:10:52;;;;;;;;;;;;;;;;;;5115361;28;19928;-50
2023/12/10 02:13:18;;;;;;;;;;;;;;;;;;5115459;28;19959;-51
2023/12/10 02:15:44;;;;;;;;;;;;;;;;;;5115039;28;19923;-50
2023/12/10 02:18:10;;;;;;;;;;;;;;;;;;5114917;28;19924;-51
2023/12/10 02:20:36;;;;;;;;;;;;;;;;;;5115400;28;19930;-49
2023/12/10 02:23:04;;;;;;;;;;;;;;;;;;5115425;28;19935;-50
2023/12/10 02:25:30;;;;;;;;;;;;;;;;;;5115200;28;19931;-51
2023/12/10 02:27:56;;;;;;;;;;;;;;;;;;5115028;28;19923;-51
2023/12/10 02:30:22;;;;;;;;;;;;;;;;;;5114857;27;19923;-49
2023/12/10 02:32:49;;;;;;;;;;;;;;;;;;5115047;28;19928;-50
2023/12/10 02:35:15;;;;;;;;;;;;;;;;;;5114265;28;19924;-52
2023/12/10 02:37:41;;;;;;;;;;;;;;;;;;5114576;28;19924;-52
2023/12/10 02:40:08;;;;;;;;;;;;;;;;;;5114564;28;19927;-56
2023/12/10 02:42:34;;;;;;;;;;;;;;;;;;5114892;28;20439;-56
2023/12/10 02:45:00;;;;;;;;;;;;;;;;;;5113951;28;19923;-56
2023/12/10 02:47:26;;;;;;;;;;;;;;;;;;5114041;28;19924;-56
2023/12/10 02:49:52;;;;;;;;;;;;;;;;;;5114301;28;19924;-52
2023/12/10 02:52:19;;;;;;;;;;;;;;;;;;5114487;28;19924;-51
2023/12/10 02:54:45;;;;;;;;;;;;;;;;;;5114219;28;20355;-50
2023/12/10 02:57:11;;;;;;;;;;;;;;;;;;5114357;28;19927;-53
2023/12/10 02:59:37;;;;;;;;;;;;;;;;;;5114578;28;19928;-52
2023/12/10 03:02:03;;;;;;;;;;;;;;;;;;5114562;28;20033;-52
2023/12/10 03:04:29;;;;;;;;;;;;;;;;;;5114564;28;20061;-52
2023/12/10 03:06:55;;;;;;;;;;;;;;;;;;5114626;28;19923;-53
2023/12/10 03:09:22;;;;;;;;;;;;;;;;;;5113868;28;19924;-51
2023/12/10 03:11:48;;;;;;;;;;;;;;;;;;5113964;28;19924;-52
2023/12/10 03:14:14;;;;;;;;;;;;;;;;;;5113609;28;19977;-51
2023/12/10 03:16:40;;;;;;;;;;;;;;;;;;5113926;28;19963;-52
2023/12/10 03:19:06;;;;;;;;;;;;;;;;;;5113866;28;19968;-51
2023/12/10 03:21:32;;;;;;;;;;;;;;;;;;5114422;28;19924;-52
2023/12/10 03:23:59;;;;;;;;;;;;;;;;;;5113988;27;19931;-53
2023/12/10 03:26:25;;;;;;;;;;;;;;;;;;5114314;28;19977;-52
2023/12/10 03:28:51;;;;;;;;;;;;;;;;;;5113979;28;19924;-51
2023/12/10 03:31:17;;;;;;;;;;;;;;;;;;5114018;28;19924;-52
2023/12/10 03:33:43;;;;;;;;;;;;;;;;;;5114045;28;19924;-52
2023/12/10 03:36:09;;;;;;;;;;;;;;;;;;5114119;28;19927;-52
2023/12/10 03:38:36;;;;;;;;;;;;;;;;;;5113503;28;20018;-52
2023/12/10 03:41:02;;;;;;;;;;;;;;;;;;5113798;28;19959;-52
2023/12/10 03:43:28;;;;;;;;;;;;;;;;;;5113819;28;19973;-50
2023/12/10 03:45:54;;;;;;;;;;;;;;;;;;5113174;28;19970;-52
2023/12/10 03:48:21;;;;;;;;;;;;;;;;;;5113015;28;19924;-52
2023/12/10 03:50:47;;;;;;;;;;;;;;;;;;5113745;28;19923;-52
2023/12/10 03:53:13;;;;;;;;;;;;;;;;;;5113463;28;19923;-52
2023/12/10 03:55:39;;;;;;;;;;;;;;;;;;5113760;28;20044;-53
2023/12/10 03:58:06;;;;;;;;;;;;;;;;;;5113699;28;19923;-52
2023/12/10 04:00:32;;;;;;;;;;;;;;;;;;5113678;28;19924;-52
2023/12/10 04:02:58;;;;;;;;;;;;;;;;;;5113732;28;20011;-52
2023/12/10 04:05:24;;;;;;;;;;;;;;;;;;5113739;28;19928;-52
2023/12/10 04:07:51;;;;;;;;;;;;;;;;;;5113165;28;19923;-52
2023/12/10 04:10:17;;;;;;;;;;;;;;;;;;5112879;28;19928;-52
2023/12/10 04:12:43;;;;;;;;;;;;;;;;;;5112723;28;19924;-52
2023/12/10 04:15:10;;;;;;;;;;;;;;;;;;5112770;28;20259;-52
2023/12/10 04:17:36;;;;;;;;;;;;;;;;;;5113394;28;19924;-52
2023/12/10 04:20:03;;;;;;;;;;;;;;;;;;5113276;28;19927;-52
2023/12/10 04:22:29;;;;;;;;;;;;;;;;;;5113413;28;19934;-53
2023/12/10 04:24:56;;;;;;;;;;;;;;;;;;5113329;28;20350;-52
2023/12/10 04:27:23;;;;;;;;;;;;;;;;;;5113465;28;20363;-52
2023/12/10 04:29:49;;;;;;;;;;;;;;;;;;5113125;28;20026;-51
2023/12/10 04:32:15;;;;;;;;;;;;;;;;;;5112898;28;19977;-52
2023/12/10 04:34:41;;;;;;;;;;;;;;;;;;5113076;28;20019;-50
2023/12/10 04:37:07;;;;;;;;;;;;;;;;;;5113049;28;19924;-52
2023/12/10 04:39:34;;;;;;;;;;;;;;;;;;5112772;28;20056;-52
2023/12/10 04:42:00;;;;;;;;;;;;;;;;;;5113044;28;19930;-52
2023/12/10 04:44:26;;;;;;;;;;;;;;;;;;5112855;28;19924;-52
2023/12/10 04:46:52;;;;;;;;;;;;;;;;;;5113217;28;19924;-52
2023/12/10 04:49:18;;;;;;;;;;;;;;;;;;5112411;28;19924;-50
2023/12/10 04:51:45;;;;;;;;;;;;;;;;;;5112839;28;19974;-52
2023/12/10 04:54:11;;;;;;;;;;;;;;;;;;5112553;28;19934;-52
2023/12/10 04:56:37;;;;;;;;;;;;;;;;;;5113072;28;19923;-52
2023/12/10 04:59:04;;;;;;;;;;;;;;;;;;5114205;28;19935;-52
2023/12/10 05:01:30;;;;;;;;;;;;;;;;;;5113478;28;19931;-52
2023/12/10 05:03:56;;;;;;;;;;;;;;;;;;5117023;28;19967;-52
2023/12/10 05:06:22;;;;;;;;;;;;;;;;;;5116781;28;19969;-52
2023/12/10 05:08:48;;;;;;;;;;;;;;;;;;5116283;28;19924;-52
2023/12/10 05:11:14;;;;;;;;;;;;;;;;;;5116711;28;19955;-52
2023/12/10 05:13:41;;;;;;;;;;;;;;;;;;5115988;28;19927;-52
2023/12/10 05:16:07;;;;;;;;;;;;;;;;;;5116399;28;19924;-52
2023/12/10 05:18:33;;;;;;;;;;;;;;;;;;5116578;28;19924;-52
2023/12/10 05:20:59;;;;;;;;;;;;;;;;;;5116548;28;20014;-51
2023/12/10 05:23:25;;;;;;;;;;;;;;;;;;5116673;28;19924;-52
2023/12/10 05:25:52;;;;;;;;;;;;;;;;;;5116554;28;19924;-52
2023/12/10 05:28:18;;;;;;;;;;;;;;;;;;5116519;28;19924;-52
2023/12/10 05:30:44;;;;;;;;;;;;;;;;;;5116340;28;19924;-52
2023/12/10 05:33:10;;;;;;;;;;;;;;;;;;5115915;28;20394;-52
2023/12/10 05:35:36;;;;;;;;;;;;;;;;;;5115886;28;19923;-52
2023/12/10 05:38:03;;;;;;;;;;;;;;;;;;5115648;28;19931;-52
2023/12/10 05:40:29;;;;;;;;;;;;;;;;;;5115888;28;19977;-52
2023/12/10 05:42:57;;;;;;;;;;;;;;;;;;5114870;28;21218;-52
2023/12/10 05:45:23;;;;;;;;;;;;;;;;;;5115740;28;19923;-52
2023/12/10 05:47:59;;;;;;;;;;;;;;;;;;5116062;28;19923;-52
2023/12/10 05:50:25;;;;;;;;;;;;;;;;;;5115723;28;20038;-50
2023/12/10 05:52:51;;;;;;;;;;;;;;;;;;5115651;28;19943;-51
2023/12/10 05:55:18;;;;;;;;;;;;;;;;;;5115838;28;19928;-50
2023/12/10 05:57:44;;;;;;;;;;;;;;;;;;5116024;28;19924;-52
2023/12/10 06:00:10;;;;;;;;;;;;;;;;;;5115916;28;19923;-52
2023/12/10 06:02:36;;;;;;;;;;;;;;;;;;5115544;28;19977;-52
2023/12/10 06:05:02;;;;;;;;;;;;;;;;;;5115172;28;19977;-51
2023/12/10 06:07:29;;;;;;;;;;;;;;;;;;5115475;28;19923;-52
2023/12/10 06:09:55;;;;;;;;;;;;;;;;;;5114432;28;20462;-52
2023/12/10 06:12:21;;;;;;;;;;;;;;;;;;5114939;28;19977;-52
2023/12/10 06:14:48;;;;;;;;;;;;;;;;;;5114888;27;19924;-52
2023/12/10 06:17:14;;;;;;;;;;;;;;;;;;5115547;28;19969;-52
2023/12/10 06:19:40;;;;;;;;;;;;;;;;;;5115391;27;19949;-52
2023/12/10 06:22:06;;;;;;;;;;;;;;;;;;5115559;28;19928;-52
2023/12/10 06:24:32;;;;;;;;;;;;;;;;;;5115508;28;19924;-52
2023/12/10 06:26:58;;;;;;;;;;;;;;;;;;5115562;28;19924;-52
2023/12/10 06:29:25;;;;;;;;;;;;;;;;;;5115291;28;19924;-51
2023/12/10 06:31:51;;;;;;;;;;;;;;;;;;5114731;28;19928;-52
2023/12/10 06:34:17;;;;;;;;;;;;;;;;;;5114412;28;20188;-52
2023/12/10 06:36:43;;;;;;;;;;;;;;;;;;5114675;28;19946;-52
2023/12/10 06:39:10;;;;;;;;;;;;;;;;;;5114743;28;19928;-52
2023/12/10 06:41:38;;;;;;;;;;;;;;;;;;5115002;28;19977;-51
2023/12/10 06:44:04;;;;;;;;;;;;;;;;;;5114666;28;19963;-52
2023/12/10 06:46:30;;;;;;;;;;;;;;;;;;5114964;28;19928;-52
2023/12/10 06:48:56;;;;;;;;;;;;;;;;;;5114681;28;20334;-52
2023/12/10 06:51:22;;;;;;;;;;;;;;;;;;5114700;28;19931;-52
2023/12/10 06:53:48;;;;;;;;;;;;;;;;;;5114263;28;19930;-52
2023/12/10 06:56:15;;;;;;;;;;;;;;;;;;5114713;28;19927;-52
2023/12/10 06:58:41;;;;;;;;;;;;;;;;;;5114990;28;20363;-52
2023/12/10 07:01:07;;;;;;;;;;;;;;;;;;5114652;28;20413;-52
2023/12/10 07:03:33;;;;;;;;;;;;;;;;;;5114483;28;19931;-52
2023/12/10 07:06:03;;;;;;;;;;;;;;;;;;5114441;28;19931;-52
2023/12/10 07:08:30;;;;;;;;;;;;;;;;;;5114205;28;19928;-52
2023/12/10 07:10:56;;;;;;;;;;;;;;;;;;5114075;28;20324;-52
2023/12/10 07:13:22;;;;;;;;;;;;;;;;;;5114032;28;20347;-52
2023/12/10 07:15:49;;;;;;;;;;;;;;;;;;5113806;28;19930;-52
2023/12/10 07:18:15;;;;;;;;;;;;;;;;;;5114421;28;19927;-53
2023/12/10 07:20:41;;;;;;;;;;;;;;;;;;5114168;28;19924;-53
2023/12/10 07:23:07;;;;;;;;;;;;;;;;;;5113819;28;19924;-52
2023/12/10 07:25:33;;;;;;;;;;;;;;;;;;5114356;28;19923;-52
2023/12/10 07:28:00;;;;;;;;;;;;;;;;;;5114272;28;19927;-51
2023/12/10 07:30:26;;;;;;;;;;;;;;;;;;5113673;28;20295;-52
2023/12/10 07:32:53;;;;;;;;;;;;;;;;;;5113692;28;19931;-51
2023/12/10 07:35:19;;;;;;;;;;;;;;;;;;5113596;28;19935;-52
2023/12/10 07:37:46;;;;;;;;;;;;;;;;;;5114078;28;19972;-52
2023/12/10 07:40:12;;;;;;;;;;;;;;;;;;5113523;27;19977;-52
2023/12/10 07:42:38;;;;;;;;;;;;;;;;;;5113906;28;19924;-52
2023/12/10 07:45:05;;;;;;;;;;;;;;;;;;5113669;28;19924;-52
2023/12/10 07:47:31;;;;;;;;;;;;;;;;;;5113929;28;19928;-52
2023/12/10 07:49:57;;;;;;;;;;;;;;;;;;5113537;28;19924;-51
2023/12/10 07:52:23;;;;;;;;;;;;;;;;;;5113468;28;19931;-51
2023/12/10 07:54:49;;;;;;;;;;;;;;;;;;5113154;28;20409;-52
2023/12/10 07:57:16;;;;;;;;;;;;;;;;;;5113352;28;19930;-51
2023/12/10 07:59:42;;;;;;;;;;;;;;;;;;5113229;28;19924;-52
2023/12/10 08:02:08;;;;;;;;;;;;;;;;;;5113490;28;19997;-52
2023/12/10 08:04:34;;;;;;;;;;;;;;;;;;5113791;28;19928;-52
2023/12/10 08:07:01;;;;;;;;;;;;;;;;;;5113312;28;20330;-52
2023/12/10 08:09:28;;;;;;;;;;;;;;;;;;5113189;28;20022;-52
2023/12/10 08:11:54;;;;;;;;;;;;;;;;;;5113332;28;19924;-51
2023/12/10 08:14:25;;;;;;;;;;;;;;;;;;5112615;28;20022;-52
2023/12/10 08:16:51;;;;;;;;;;;;;;;;;;5113399;28;19973;-52
2023/12/10 08:19:17;;;;;;;;;;;;;;;;;;5113276;28;19923;-52
2023/12/10 08:21:44;;;;;;;;;;;;;;;;;;5113593;28;19924;-51
2023/12/10 08:24:10;;;;;;;;;;;;;;;;;;5113443;28;19947;-52
2023/12/10 08:26:36;;;;;;;;;;;;;;;;;;5113402;28;19924;-52
2023/12/10 08:29:02;;;;;;;;;;;;;;;;;;5113313;28;19931;-52
2023/12/10 08:31:28;;;;;;;;;;;;;;;;;;5112618;28;19928;-52
2023/12/10 08:33:55;;;;;;;;;;;;;;;;;;5113702;28;19928;-52
2023/12/10 08:36:21;;;;;;;;;;;;;;;;;;5117145;28;19984;-52
2023/12/10 08:38:47;;;;;;;;;;;;;;;;;;5117167;28;19930;-52
2023/12/10 08:41:13;;;;;;;;;;;;;;;;;;5117322;28;19967;-52
2023/12/10 08:43:39;;;;;;;;;;;;;;;;;;5117472;28;20329;-52
2023/12/10 08:46:05;;;;;;;;;;;;;;;;;;5117054;28;20424;-52
2023/12/10 08:48:32;;;;;;;;;;;;;;;;;;5117380;28;20015;-52
2023/12/10 08:50:58;;;;;;;;;;;;;;;;;;5117144;28;19924;-52
2023/12/10 08:53:24;;;;;;;;;;;;;;;;;;5116503;28;19924;-52
2023/12/10 08:55:51;;;;;;;;;;;;;;;;;;5116828;28;19924;-52
2023/12/10 08:58:17;;;;;;;;;;;;;;;;;;5116985;28;19981;-52
2023/12/10 09:00:43;;;;;;;;;;;;;;;;;;5116910;28;19973;-52
2023/12/10 09:03:10;;;;;;;;;;;;;;;;;;5116953;28;19974;-51
2023/12/10 09:05:37;;;;;;;;;;;;;;;;;;5116928;28;19936;-51
2023/12/10 09:08:03;;;;;;;;;;;;;;;;;;5116317;28;19924;-52
2023/12/10 09:10:29;;;;;;;;;;;;;;;;;;5115912;28;19924;-51
2023/12/10 09:12:55;;;;;;;;;;;;;;;;;;5116282;28;19924;-50
2023/12/10 09:15:22;;;;;;;;;;;;;;;;;;5115386;28;19927;-52
2023/12/10 09:17:48;;;;;;;;;;;;;;;;;;5116356;28;19938;-50
2023/12/10 09:20:14;;;;;;;;;;;;;;;;;;5116273;28;19923;-51
2023/12/10 09:22:41;;;;;;;;;;;;;;;;;;5116298;27;20364;-51
2023/12/10 09:25:07;;;;;;;;;;;;;;;;;;5116525;28;19927;-51
2023/12/10 09:27:33;;;;;;;;;;;;;;;;;;5116261;28;19924;-51
2023/12/10 09:30:00;;;;;;;;;;;;;;;;;;5116090;28;20322;-52
2023/12/10 09:32:27;;;;;;;;;;;;;;;;;;5116280;28;19976;-51
2023/12/10 09:34:53;;;;;;;;;;;;;;;;;;5115793;28;19924;-52
2023/12/10 09:37:20;;;;;;;;;;;;;;;;;;5116244;28;19977;-51
2023/12/10 09:39:46;;;;;;;;;;;;;;;;;;5115917;28;19932;-51
2023/12/10 09:42:13;;;;;;;;;;;;;;;;;;5116236;28;19972;-51
2023/12/10 09:44:39;;;;;;;;;;;;;;;;;;5115278;28;19946;-51
2023/12/10 09:47:05;;;;;;;;;;;;;;;;;;5115932;28;20412;-51
2023/12/10 09:49:33;;;;;;;;;;;;;;;;;;5116242;28;19924;-51
2023/12/10 09:51:59;;;;;;;;;;;;;;;;;;5115880;28;19930;-51
2023/12/10 09:54:25;;;;;;;;;;;;;;;;;;5115430;28;19930;-51
2023/12/10 09:56:52;;;;;;;;;;;;;;;;;;5115037;28;19965;-51
2023/12/10 09:59:18;;;;;;;;;;;;;;;;;;5115690;28;19973;-51
2023/12/10 10:01:44;;;;;;;;;;;;;;;;;;5115823;28;19923;-52
2023/12/10 10:04:10;;;;;;;;;;;;;;;;;;5115493;28;19981;-51
2023/12/10 10:06:36;;;;;;;;;;;;;;;;;;5115204;28;19931;-52
2023/12/10 10:09:05;;;;;;;;;;;;;;;;;;5115440;28;19924;-51
2023/12/10 10:11:31;;;;;;;;;;;;;;;;;;5115498;28;19924;-52
2023/12/10 10:13:57;;;;;;;;;;;;;;;;;;5115023;28;19924;-51
2023/12/10 10:16:23;;;;;;;;;;;;;;;;;;5114717;28;20032;-52
2023/12/10 10:18:49;;;;;;;;;;;;;;;;;;5115570;28;20044;-51
2023/12/10 10:21:16;;;;;;;;;;;;;;;;;;5115445;28;19989;-51
2023/12/10 10:23:43;;;;;;;;;;;;;;;;;;5114973;28;20311;-51
2023/12/10 10:26:10;;;;;;;;;;;;;;;;;;5114955;28;19997;-52
2023/12/10 10:28:37;;;;;;;;;;;;;;;;;;5115206;28;19924;-52
2023/12/10 10:31:03;;;;;;;;;;;;;;;;;;5114965;28;19924;-51
2023/12/10 10:33:29;;;;;;;;;;;;;;;;;;5115075;27;19924;-51
2023/12/10 10:35:55;;;;;;;;;;;;;;;;;;5114776;28;19931;-52
2023/12/10 10:38:22;;;;;;;;;;;;;;;;;;5114910;28;20311;-50
2023/12/10 10:40:48;;;;;;;;;;;;;;;;;;5114934;28;20271;-51
2023/12/10 10:43:14;;;;;;;;;;;;;;;;;;5115190;28;19924;-52
2023/12/10 10:45:41;;;;;;;;;;;;;;;;;;5114538;28;19931;-51
2023/12/10 10:48:07;;;;;;;;;;;;;;;;;;5114233;28;20438;-51
2023/12/10 10:50:33;;;;;;;;;;;;;;;;;;5115010;28;19924;-51
2023/12/10 10:52:59;;;;;;;;;;;;;;;;;;5114732;28;19923;-52
2023/12/10 10:55:25;;;;;;;;;;;;;;;;;;5114195;28;19962;-51
2023/12/10 10:57:52;;;;;;;;;;;;;;;;;;5113793;28;19931;-51
2023/12/10 11:00:18;;;;;;;;;;;;;;;;;;5114701;28;19971;-51
2023/12/10 11:02:45;;;;;;;;;;;;;;;;;;5114763;28;19927;-52
2023/12/10 11:05:11;;;;;;;;;;;;;;;;;;5114576;28;19924;-51
2023/12/10 11:07:37;;;;;;;;;;;;;;;;;;5114197;28;19971;-52
2023/12/10 11:10:05;;;;;;;;;;;;;;;;;;5114122;28;20264;-51
2023/12/10 11:12:31;;;;;;;;;;;;;;;;;;5114275;28;19955;-52
2023/12/10 11:14:57;;;;;;;;;;;;;;;;;;5114182;28;19928;-50
2023/12/10 11:17:23;;;;;;;;;;;;;;;;;;5114316;27;19951;-51
2023/12/10 11:19:49;;;;;;;;;;;;;;;;;;5114280;28;19923;-51
2023/12/10 11:22:16;;;;;;;;;;;;;;;;;;5114159;28;20276;-52
2023/12/10 11:24:42;;;;;;;;;;;;;;;;;;5114275;28;19973;-51
2023/12/10 11:27:08;;;;;;;;;;;;;;;;;;5113958;28;19924;-52
2023/12/10 11:29:34;;;;;;;;;;;;;;;;;;5113979;28;20337;-51
2023/12/10 11:32:00;;;;;;;;;;;;;;;;;;5113523;28;20367;-51
2023/12/10 11:34:26;;;;;;;;;;;;;;;;;;5113724;28;20257;-51
2023/12/10 11:36:53;;;;;;;;;;;;;;;;;;5113965;28;19924;-51
2023/12/10 11:39:19;;;;;;;;;;;;;;;;;;5113854;28;20367;-51
2023/12/10 11:41:45;;;;;;;;;;;;;;;;;;5113962;28;19931;-52
2023/12/10 11:44:21;;;;;;;;;;;;;;;;;;5113715;28;20316;-51
2023/12/10 11:46:47;;;;;;;;;;;;;;;;;;5114099;28;19924;-51
2023/12/10 11:49:16;;;;;;;;;;;;;;;;;;5113691;28;19934;-51
2023/12/10 11:51:42;;;;;;;;;;;;;;;;;;5113429;28;20360;-51
2023/12/10 11:54:09;;;;;;;;;;;;;;;;;;5113307;28;20357;-51
2023/12/10 11:56:35;;;;;;;;;;;;;;;;;;5113436;28;19973;-52
2023/12/10 11:59:02;;;;;;;;;;;;;;;;;;5113686;28;19973;-51
2023/12/10 12:01:28;;;;;;;;;;;;;;;;;;5113674;28;19976;-52
2023/12/10 12:03:54;;;;;;;;;;;;;;;;;;5113493;28;20380;-52
2023/12/10 12:06:21;;;;;;;;;;;;;;;;;;5113634;28;19923;-51
2023/12/10 12:08:47;;;;;;;;;;;;;;;;;;5113151;28;19934;-52
2023/12/10 12:11:13;;;;;;;;;;;;;;;;;;5113460;28;20436;-52
2023/12/10 12:13:42;;;;;;;;;;;;;;;;;;5113505;28;19927;-51
2023/12/10 12:16:09;;;;;;;;;;;;;;;;;;5113055;28;19931;-52
2023/12/10 12:18:35;;;;;;;;;;;;;;;;;;5113284;28;19924;-51
2023/12/10 12:21:01;;;;;;;;;;;;;;;;;;5112796;28;19924;-51
2023/12/10 12:23:27;;;;;;;;;;;;;;;;;;5113559;28;19924;-52
2023/12/10 12:25:54;;;;;;;;;;;;;;;;;;5113321;28;20318;-51
2023/12/10 12:28:21;;;;;;;;;;;;;;;;;;5113101;28;20295;-51
2023/12/10 12:30:47;;;;;;;;;;;;;;;;;;5113105;28;20341;-51
2023/12/10 12:33:14;;;;;;;;;;;;;;;;;;5113194;28;19930;-51
2023/12/10 12:35:41;;;;;;;;;;;;;;;;;;5113024;28;19924;-52
2023/12/10 12:38:07;;;;;;;;;;;;;;;;;;5113293;28;19970;-51
2023/12/10 12:40:34;;;;;;;;;;;;;;;;;;5113035;28;19936;-51
2023/12/10 12:43:00;;;;;;;;;;;;;;;;;;5113386;28;19924;-51
2023/12/10 12:45:27;;;;;;;;;;;;;;;;;;5112944;28;20256;-51
2023/12/10 12:47:53;;;;;;;;;;;;;;;;;;5113081;28;19931;-51
2023/12/10 12:50:19;;;;;;;;;;;;;;;;;;5113013;28;19927;-51
2023/12/10 12:52:46;;;;;;;;;;;;;;;;;;5112929;28;19928;-49
2023/12/10 12:55:13;;;;;;;;;;;;;;;;;;5112959;28;19981;-51
2023/12/10 12:57:39;;;;;;;;;;;;;;;;;;5113013;28;19927;-51
2023/12/10 13:00:05;;;;;;;;;;;;;;;;;;5113184;28;20011;-50
2023/12/10 13:02:31;;;;;;;;;;;;;;;;;;5113065;28;19927;-51
2023/12/10 13:04:57;;;;;;;;;;;;;;;;;;5113162;28;19923;-50
2023/12/10 13:07:24;;;;;;;;;;;;;;;;;;5113040;28;20351;-52
2023/12/10 13:09:50;;;;;;;;;;;;;;;;;;5112817;28;19964;-52
2023/12/10 13:12:16;;;;;;;;;;;;;;;;;;5112743;28;19927;-51
2023/12/10 13:14:42;;;;;;;;;;;;;;;;;;5112558;28;19931;-51
2023/12/10 13:17:10;;;;;;;;;;;;;;;;;;5112388;28;19947;-51
2023/12/10 13:19:36;;;;;;;;;;;;;;;;;;5113116;28;19928;-51
2023/12/10 13:22:02;;;;;;;;;;;;;;;;;;5116010;28;20372;-51
2023/12/10 13:24:28;;;;;;;;;;;;;;;;;;5115731;28;19927;-52
2023/12/10 13:26:54;;;;;;;;;;;;;;;;;;5115629;28;19928;-51
2023/12/10 13:29:20;;;;;;;;;;;;;;;;;;5115620;28;19988;-51
2023/12/10 13:31:47;;;;;;;;;;;;;;;;;;5115362;28;20264;-51
2023/12/10 13:34:13;;;;;;;;;;;;;;;;;;5116202;28;19924;-51
2023/12/10 13:36:39;;;;;;;;;;;;;;;;;;5115753;28;19928;-51
2023/12/10 13:39:05;;;;;;;;;;;;;;;;;;5115755;27;19930;-51
2023/12/10 13:41:31;;;;;;;;;;;;;;;;;;5116246;28;20313;-51
2023/12/10 13:43:58;;;;;;;;;;;;;;;;;;5115608;28;19924;-51
2023/12/10 13:46:25;;;;;;;;;;;;;;;;;;5116156;28;19924;-51
2023/12/10 13:48:51;;;;;;;;;;;;;;;;;;5116152;28;19973;-52
2023/12/10 13:51:17;;;;;;;;;;;;;;;;;;5115988;28;19937;-51
2023/12/10 13:53:45;;;;;;;;;;;;;;;;;;5115967;27;19924;-51
2023/12/10 13:56:11;;;;;;;;;;;;;;;;;;5115491;28;19938;-52
2023/12/10 13:58:37;;;;;;;;;;;;;;;;;;5115640;28;19949;-52
2023/12/10 14:01:03;;;;;;;;;;;;;;;;;;5115921;28;19945;-50
2023/12/10 14:03:30;;;;;;;;;;;;;;;;;;5115435;28;20356;-51
2023/12/10 14:05:58;;;;;;;;;;;;;;;;;;5115917;28;20325;-50
2023/12/10 14:08:24;;;;;;;;;;;;;;;;;;5115660;28;19923;-51
2023/12/10 14:10:50;;;;;;;;;;;;;;;;;;5115982;27;19972;-51
2023/12/10 14:13:16;;;;;;;;;;;;;;;;;;5114923;28;20291;-51
2023/12/10 14:15:43;;;;;;;;;;;;;;;;;;5115032;28;20421;-52
2023/12/10 14:18:09;;;;;;;;;;;;;;;;;;5114975;28;19931;-52
2023/12/10 14:20:35;;;;;;;;;;;;;;;;;;5115240;28;19928;-52
2023/12/10 14:23:01;;;;;;;;;;;;;;;;;;5114781;28;19924;-51
2023/12/10 14:25:27;;;;;;;;;;;;;;;;;;5115263;28;19973;-52
2023/12/10 14:27:54;;;;;;;;;;;;;;;;;;5115244;28;19928;-50
2023/12/10 14:30:20;;;;;;;;;;;;;;;;;;5115384;28;19931;-51
2023/12/10 14:32:46;;;;;;;;;;;;;;;;;;5114924;27;19954;-52
2023/12/10 14:35:12;;;;;;;;;;;;;;;;;;5115291;28;19936;-51
2023/12/10 14:37:38;;;;;;;;;;;;;;;;;;5114876;28;19973;-51
2023/12/10 14:40:04;;;;;;;;;;;;;;;;;;5114864;28;20004;-52
2023/12/10 14:42:31;;;;;;;;;;;;;;;;;;5114961;28;19924;-52
2023/12/10 14:44:57;;;;;;;;;;;;;;;;;;5114410;28;20375;-51
2023/12/10 14:47:23;;;;;;;;;;;;;;;;;;5115040;28;19969;-51
2023/12/10 14:49:49;;;;;;;;;;;;;;;;;;5115017;28;19966;-51
2023/12/10 14:52:15;;;;;;;;;;;;;;;;;;5114420;28;19932;-51
2023/12/10 14:54:41;;;;;;;;;;;;;;;;;;5114620;28;19989;-51
2023/12/10 14:57:08;;;;;;;;;;;;;;;;;;5114531;28;19924;-51
2023/12/10 14:59:34;;;;;;;;;;;;;;;;;;5114792;28;19927;-51
2023/12/10 15:02:00;;;;;;;;;;;;;;;;;;5114528;28;19924;-52
2023/12/10 15:04:34;;;;;;;;;;;;;;;;;;5114538;28;19930;-51
2023/12/10 15:07:00;;;;;;;;;;;;;;;;;;5114822;28;19923;-51
2023/12/10 15:09:26;;;;;;;;;;;;;;;;;;5114534;28;19925;-51
2023/12/10 15:11:53;;;;;;;;;;;;;;;;;;5114264;27;19930;-51
2023/12/10 15:14:19;;;;;;;;;;;;;;;;;;5113875;28;19932;-50
2023/12/10 15:16:45;;;;;;;;;;;;;;;;;;5114175;28;20440;-50
2023/12/10 15:19:11;;;;;;;;;;;;;;;;;;5114241;28;20321;-52
2023/12/10 15:21:37;;;;;;;;;;;;;;;;;;5114153;28;20382;-51
2023/12/10 15:24:03;;;;;;;;;;;;;;;;;;5113873;28;19923;-52
2023/12/10 15:26:30;;;;;;;;;;;;;;;;;;5114033;28;19924;-51
2023/12/10 15:28:56;;;;;;;;;;;;;;;;;;5114311;28;20433;-51
2023/12/10 15:31:22;;;;;;;;;;;;;;;;;;5114380;28;19931;-51
2023/12/10 15:33:48;;;;;;;;;;;;;;;;;;5114053;28;19924;-52
2023/12/10 15:36:18;;;;;;;;;;;;;;;;;;5113861;28;19931;-52
2023/12/10 15:38:45;;;;;;;;;;;;;;;;;;5113985;28;19927;-51
2023/12/10 15:41:11;;;;;;;;;;;;;;;;;;5113787;28;19924;-50
2023/12/10 15:43:37;;;;;;;;;;;;;;;;;;5113357;28;19924;-51
2023/12/10 15:46:03;;;;;;;;;;;;;;;;;;5113626;28;19935;-51
2023/12/10 15:48:29;;;;;;;;;;;;;;;;;;5113896;28;19958;-52
2023/12/10 15:50:56;;;;;;;;;;;;;;;;;;5113836;28;19928;-52
2023/12/10 15:53:23;;;;;;;;;;;;;;;;;;5113448;28;20367;-52
2023/12/10 15:55:49;;;;;;;;;;;;;;;;;;5113531;28;19932;-51
2023/12/10 15:58:15;;;;;;;;;;;;;;;;;;5113559;28;19924;-50
2023/12/10 16:00:41;;;;;;;;;;;;;;;;;;5113838;28;19928;-51
2023/12/10 16:03:08;;;;;;;;;;;;;;;;;;5113780;28;20015;-52
2023/12/10 16:05:35;;;;;;;;;;;;;;;;;;5113775;28;19931;-51
2023/12/10 16:08:01;;;;;;;;;;;;;;;;;;5113504;28;20340;-51
2023/12/10 16:10:27;;;;;;;;;;;;;;;;;;5113068;28;20294;-51
2023/12/10 16:12:53;;;;;;;;;;;;;;;;;;5113171;28;19959;-50
2023/12/10 16:15:19;;;;;;;;;;;;;;;;;;5112381;28;19923;-51
2023/12/10 16:17:46;;;;;;;;;;;;;;;;;;5113253;28;20387;-51
2023/12/10 16:20:12;;;;;;;;;;;;;;;;;;5113293;28;19928;-51
2023/12/10 16:22:38;;;;;;;;;;;;;;;;;;5113392;28;20381;-51
2023/12/10 16:25:05;;;;;;;;;;;;;;;;;;5113494;28;20265;-51
2023/12/10 16:27:31;;;;;;;;;;;;;;;;;;5113309;28;19947;-52
2023/12/10 16:29:57;;;;;;;;;;;;;;;;;;5113424;28;20034;-51
2023/12/10 16:32:23;;;;;;;;;;;;;;;;;;5113353;28;19985;-50
2023/12/10 16:34:50;;;;;;;;;;;;;;;;;;5112346;28;19928;-51
2023/12/10 16:37:16;;;;;;;;;;;;;;;;;;5113030;28;20360;-51
2023/12/10 16:39:44;;;;;;;;;;;;;;;;;;5112646;28;20008;-51